• Join FlightAware (Why Join?)
  • Login
  • US Flag 
05:09AM EDT


 

Airport Tracker/Info


-or-


 

Live Flight TrackerFlight Track Log ✈ TAM3053 ✈ 08-Mar-2014 ✈ SBSP / CGH - SBCF / CNF

Flight Track Log - Related Links

Times and Time Zones

All times are in EST time to prevent confusion due to time zone crossing. See the TAM3053 flight status page for this flight to view local times or setup timezone preferences in your user account.

Time Position Orientation Groundspeed Altitude Reporting Facility
EST Latitude Longitude Course Direction KTS MPH feet Rate Location/Type
08:39AM -22.5884 -45.9393 33° Northeast  Level Estimated
08:40AM -22.5018 -45.8801 32° Northeast  Level Estimated
08:41AM -22.4151 -45.8210 32° Northeast  Level Estimated
08:42AM -22.3284 -45.7620 32° Northeast  Level Estimated
08:43AM -22.2416 -45.7031 32° Northeast  Level Estimated
08:44AM -22.1549 -45.6442 32° Northeast  Level Estimated
08:45AM -22.0681 -45.5854 32° Northeast  Level Estimated
08:46AM -21.9813 -45.5266 32° Northeast  Level Estimated
08:47AM -21.8945 -45.4680 32° Northeast  Level Estimated
08:48AM -21.8076 -45.4094 32° Northeast  Level Estimated
08:49AM -21.7208 -45.3508 32° Northeast  Level Estimated
08:50AM -21.6339 -45.2924 32° Northeast  Level Estimated
08:51AM -21.5470 -45.2340 32° Northeast  Level Estimated
08:52AM -21.4601 -45.1757 32° Northeast  Level Estimated
08:53AM -21.3732 -45.1175 32° Northeast  Level Estimated
08:54AM -21.2862 -45.0593 32° Northeast  Level Estimated
08:55AM -21.1992 -45.0012 32° Northeast  Level Estimated
08:56AM -21.1122 -44.9431 32° Northeast  Level Estimated
08:57AM -21.0252 -44.8852 32° Northeast  Level Estimated
08:58AM -20.9382 -44.8273 32° Northeast  Level Estimated
08:59AM -20.8511 -44.7694 32° Northeast  Level Estimated
09:00AM -20.7640 -44.7117 32° Northeast  Level Estimated
09:01AM -20.6769 -44.6540 32° Northeast  Level Estimated
09:02AM -20.5898 -44.5963 32° Northeast  Level Estimated
09:03AM -20.5027 -44.5388 32° Northeast  Level Estimated
09:04AM -20.4155 -44.4813 32° Northeast  Level Estimated
09:05AM -20.3284 -44.4238 32° Northeast  Level Estimated
09:06AM -20.2412 -44.3665 32° Northeast  Level Estimated
09:07AM -20.1540 -44.3092 32° Northeast  Level Estimated
09:08AM -20.0667 -44.2519 32° Northeast  Level Estimated
09:09AM -19.9795 -44.1947 32° Northeast  Level Estimated
09:10AM -19.8922 -44.1376 32° Northeast  Level Estimated
09:11AM -19.8049 -44.0806 32° Northeast  Level Estimated
09:12AM -19.7176 -44.0235 32° Northeast  Level Estimated
09:13AM -19.6338 -43.9689 32° Northeast  Level Estimated
09:14AM -19.6338 -43.9689 North  Level Estimated
09:15AM -19.6338 -43.9689 North  Level Estimated
09:16AM -19.6338 -43.9689 North  Level Estimated
09:17AM -19.6338 -43.9689 North  Level Estimated
09:18AM -19.6338 -43.9689 North  Level Estimated
09:19AM -19.6338 -43.9689 North  Level Estimated
09:20AM -19.6338 -43.9689 North  Level Estimated
09:21AM -19.6338 -43.9689 North  Level Estimated
09:22AM -19.6338 -43.9689 North  Level Estimated
09:23AM -19.6338 -43.9689 North  Level Estimated
09:24AM -19.6338 -43.9689 North  Level Estimated
09:25AM -19.6338 -43.9689 North  Level Estimated
09:26AM -19.6338 -43.9689 North  Level Estimated
09:27AM -19.6338 -43.9689 North  Level Estimated
09:28AM -19.6338 -43.9689 North  Level Estimated
09:29AM -19.6338 -43.9689 North  Level Estimated